createdAt,value
2023-02-19T00:01:24.428Z,3.90
2023-02-19T00:06:17.241Z,3.80
2023-02-19T00:11:13.951Z,3.73
2023-02-19T00:16:20.794Z,3.73
2023-02-19T00:21:17.200Z,3.70
2023-02-19T00:26:18.604Z,3.67
2023-02-19T00:31:24.362Z,3.64
2023-02-19T00:36:18.594Z,3.66
2023-02-19T00:41:21.923Z,3.65
2023-02-19T00:46:15.225Z,3.69
2023-02-19T00:51:08.303Z,3.73
2023-02-19T00:56:01.376Z,3.75
2023-02-19T01:00:54.493Z,3.76
2023-02-19T01:05:47.723Z,3.79
2023-02-19T01:10:41.176Z,3.75
2023-02-19T01:15:35.156Z,3.73
2023-02-19T01:20:28.833Z,3.74
2023-02-19T01:25:21.702Z,3.74
2023-02-19T01:30:14.901Z,3.74
2023-02-19T01:35:07.962Z,3.73
2023-02-19T01:40:00.748Z,3.77
2023-02-19T01:45:20.159Z,3.79
2023-02-19T01:50:13.110Z,3.77
2023-02-19T01:55:09.900Z,3.73
2023-02-19T02:00:13.222Z,3.75
2023-02-19T02:05:14.749Z,3.75
2023-02-19T02:10:21.390Z,3.82
2023-02-19T02:15:16.437Z,3.85
2023-02-19T02:20:27.741Z,3.85
2023-02-19T02:25:50.388Z,3.81
2023-02-19T02:30:58.814Z,3.80
2023-02-19T02:35:54.177Z,3.73
2023-02-19T02:40:49.321Z,3.70
2023-02-19T02:45:43.176Z,3.71
2023-02-19T02:51:24.197Z,3.67
2023-02-19T02:56:31.431Z,3.60
2023-02-19T03:02:12.089Z,3.54
2023-02-19T03:07:10.571Z,3.59
2023-02-19T03:12:24.228Z,3.60
2023-02-19T03:17:45.439Z,3.63
2023-02-19T03:22:40.011Z,3.67
2023-02-19T03:27:36.465Z,3.70
2023-02-19T03:32:35.539Z,3.73
2023-02-19T03:37:34.335Z,3.71
2023-02-19T03:42:45.486Z,3.67
2023-02-19T03:47:59.252Z,3.62
2023-02-19T03:52:57.171Z,3.60
2023-02-19T03:58:17.818Z,3.60
2023-02-19T04:03:28.016Z,3.59
2023-02-19T04:08:24.743Z,3.56
2023-02-19T04:13:30.682Z,3.49
2023-02-19T04:18:29.825Z,3.40
2023-02-19T04:23:26.818Z,3.33
2023-02-19T04:28:19.783Z,3.28
2023-02-19T04:33:12.526Z,3.22
2023-02-19T04:38:05.328Z,3.17
2023-02-19T04:42:58.113Z,3.15
2023-02-19T04:47:50.934Z,3.06
2023-02-19T04:52:43.690Z,3.06
2023-02-19T04:57:37.001Z,3.08
2023-02-19T05:02:29.772Z,3.08
2023-02-19T05:07:22.575Z,3.04
2023-02-19T05:12:15.343Z,3.04
2023-02-19T05:17:08.149Z,3.04
2023-02-19T05:22:00.918Z,3.01
2023-02-19T05:26:53.679Z,3.01
2023-02-19T05:31:47.724Z,3.00
2023-02-19T05:36:40.742Z,3.00
2023-02-19T05:41:33.628Z,2.99
2023-02-19T05:46:29.767Z,2.99
2023-02-19T05:51:24.783Z,2.98
2023-02-19T05:56:32.591Z,3.00
2023-02-19T06:01:28.336Z,3.01
2023-02-19T06:06:21.950Z,3.03
2023-02-19T06:11:14.757Z,3.00
2023-02-19T06:16:09.423Z,3.01
2023-02-19T06:21:03.855Z,3.07
2023-02-19T06:25:57.089Z,3.15
2023-02-19T06:30:51.917Z,3.21
2023-02-19T06:35:44.714Z,3.26
2023-02-19T06:40:37.827Z,3.33
2023-02-19T06:45:30.588Z,3.38
2023-02-19T06:50:23.378Z,3.46
2023-02-19T06:55:16.301Z,3.58
2023-02-19T07:00:10.162Z,3.72
2023-02-19T07:05:03.347Z,3.84
2023-02-19T07:09:56.121Z,3.92
2023-02-19T07:14:49.007Z,3.93
2023-02-19T07:19:41.799Z,3.98
2023-02-19T07:24:34.616Z,4.05
2023-02-19T07:29:27.437Z,4.07
2023-02-19T07:34:22.446Z,4.01
2023-02-19T07:39:16.272Z,4.05
2023-02-19T07:44:09.109Z,4.09
2023-02-19T07:49:01.917Z,4.11
2023-02-19T07:53:54.695Z,4.13
2023-02-19T07:58:47.519Z,4.24
2023-02-19T08:03:40.790Z,4.35
2023-02-19T08:08:33.659Z,4.49
2023-02-19T08:13:28.350Z,4.62
2023-02-19T08:18:25.124Z,4.74
2023-02-19T08:23:18.435Z,4.83
2023-02-19T08:28:15.361Z,4.79
2023-02-19T08:33:09.570Z,4.76
2023-02-19T08:38:02.557Z,4.68
2023-02-19T08:42:55.335Z,4.64
2023-02-19T08:47:48.431Z,4.65
2023-02-19T08:52:41.222Z,4.67
2023-02-19T08:57:38.763Z,4.75
2023-02-19T09:02:31.613Z,4.67
2023-02-19T09:07:24.418Z,4.65
2023-02-19T09:12:17.204Z,4.64
2023-02-19T09:17:10.496Z,4.61
2023-02-19T09:22:04.577Z,4.58
2023-02-19T09:27:00.302Z,4.61
2023-02-19T09:31:56.731Z,4.76
2023-02-19T09:36:52.873Z,4.95
2023-02-19T09:41:49.848Z,5.09
2023-02-19T09:46:49.032Z,5.32
2023-02-19T09:51:48.544Z,5.53
2023-02-19T09:56:41.432Z,5.65
2023-02-19T10:01:38.996Z,5.59
2023-02-19T10:06:38.166Z,5.35
2023-02-19T10:11:30.971Z,5.28
2023-02-19T10:16:29.274Z,5.57
2023-02-19T10:21:27.601Z,5.74
2023-02-19T10:26:20.959Z,5.89
2023-02-19T10:31:25.289Z,7.29
2023-02-19T10:36:40.934Z,8.51
2023-02-19T10:41:33.836Z,8.66
2023-02-19T10:46:34.408Z,7.96
2023-02-19T10:51:42.397Z,7.54
2023-02-19T10:56:35.334Z,7.06
2023-02-19T11:01:28.169Z,6.81
2023-02-19T11:06:28.135Z,6.63
2023-02-19T11:11:29.688Z,7.06
2023-02-19T11:16:22.810Z,7.88
2023-02-19T11:21:33.276Z,8.15
2023-02-19T11:26:29.051Z,7.96
2023-02-19T11:31:27.627Z,7.84
2023-02-19T11:36:30.032Z,7.72
2023-02-19T11:41:45.892Z,7.53
2023-02-19T11:47:25.648Z,7.47
2023-02-19T11:52:28.141Z,7.42
2023-02-19T11:57:43.323Z,7.39
2023-02-19T12:03:00.149Z,7.42
2023-02-19T12:08:11.555Z,7.24
2023-02-19T12:13:27.038Z,7.26
2023-02-19T12:18:34.693Z,7.86
2023-02-19T12:24:05.511Z,8.29
2023-02-19T12:29:07.375Z,8.09
2023-02-19T12:34:17.369Z,7.82
2023-02-19T12:39:23.045Z,7.62
2023-02-19T12:44:30.839Z,7.26
2023-02-19T12:49:29.707Z,6.89
2023-02-19T12:54:34.365Z,6.55
2023-02-19T12:59:45.920Z,6.28
2023-02-19T13:05:03.515Z,6.11
2023-02-19T13:10:05.000Z,5.85
2023-02-19T13:15:18.896Z,5.94
2023-02-19T13:20:33.633Z,6.71
2023-02-19T13:25:44.656Z,7.24
2023-02-19T13:30:43.437Z,7.80
2023-02-19T13:36:12.996Z,8.10
2023-02-19T13:41:06.079Z,8.21
2023-02-19T13:46:02.500Z,8.44
2023-02-19T13:51:13.806Z,8.45
2023-02-19T13:56:34.244Z,8.00
2023-02-19T14:01:49.194Z,7.36
2023-02-19T14:07:04.153Z,6.95
2023-02-19T14:12:06.515Z,6.65
2023-02-19T14:17:09.252Z,6.41
2023-02-19T14:22:02.082Z,6.30
2023-02-19T14:26:58.299Z,6.15
2023-02-19T14:31:51.165Z,5.93
2023-02-19T14:36:53.602Z,5.82
2023-02-19T14:41:50.995Z,5.72
2023-02-19T14:47:09.174Z,5.67
2023-02-19T14:52:08.111Z,5.65
2023-02-19T14:57:04.008Z,5.57
2023-02-19T15:02:21.174Z,5.48
2023-02-19T15:07:24.738Z,5.37
2023-02-19T15:12:22.932Z,5.33
2023-02-19T15:17:31.156Z,5.32
2023-02-19T15:22:28.581Z,5.28
2023-02-19T15:27:36.277Z,5.21
2023-02-19T15:32:39.777Z,5.16
2023-02-19T15:37:48.622Z,5.12
2023-02-19T15:42:50.919Z,5.14
2023-02-19T15:48:02.172Z,5.15
2023-02-19T15:53:00.617Z,5.12
2023-02-19T15:58:09.719Z,4.94
2023-02-19T16:03:03.240Z,4.80
2023-02-19T16:08:41.039Z,4.74
2023-02-19T16:13:38.642Z,4.52
2023-02-19T16:18:30.704Z,4.36
2023-02-19T16:23:24.977Z,4.24
2023-02-19T16:28:24.815Z,4.11
2023-02-19T16:33:22.208Z,3.90
2023-02-19T16:38:18.337Z,3.71
2023-02-19T16:43:16.545Z,3.58
2023-02-19T16:48:09.449Z,3.44
2023-02-19T16:53:03.239Z,3.31
2023-02-19T16:57:54.963Z,3.20
2023-02-19T17:02:49.301Z,3.12
2023-02-19T17:07:40.716Z,3.12
2023-02-19T17:12:32.229Z,3.17
2023-02-19T17:17:40.680Z,3.22
2023-02-19T17:22:32.359Z,3.25
2023-02-19T17:27:23.818Z,3.29
2023-02-19T17:32:29.660Z,3.32
2023-02-19T17:37:40.451Z,3.34
2023-02-19T17:42:37.033Z,3.31
2023-02-19T17:47:28.512Z,3.24
2023-02-19T17:52:31.071Z,3.17
2023-02-19T17:57:22.780Z,3.11
2023-02-19T18:02:16.726Z,3.02
2023-02-19T18:07:08.349Z,2.96
2023-02-19T18:11:59.773Z,2.92
2023-02-19T18:17:26.775Z,2.91
2023-02-19T18:22:36.252Z,2.88
2023-02-19T18:28:01.792Z,2.82
2023-02-19T18:33:30.381Z,2.77
2023-02-19T18:38:24.383Z,2.70
2023-02-19T18:43:15.924Z,2.65
2023-02-19T18:48:19.893Z,2.60
2023-02-19T18:53:16.861Z,2.54
2023-02-19T18:58:08.575Z,2.48
2023-02-19T19:03:12.913Z,2.41
2023-02-19T19:08:18.317Z,2.34
2023-02-19T19:13:12.091Z,2.27
2023-02-19T19:18:05.242Z,2.21
2023-02-19T19:22:59.650Z,2.15
2023-02-19T19:27:54.780Z,2.10
2023-02-19T19:32:50.207Z,2.05
2023-02-19T19:37:41.625Z,2.00
2023-02-19T19:42:33.023Z,1.98
2023-02-19T19:47:24.994Z,1.95
2023-02-19T19:52:16.405Z,1.88
2023-02-19T19:57:07.834Z,1.80
2023-02-19T20:02:02.069Z,1.73
2023-02-19T20:06:53.605Z,1.67
2023-02-19T20:11:50.331Z,1.61
2023-02-19T20:16:46.875Z,1.56
2023-02-19T20:21:38.395Z,1.52
2023-02-19T20:26:31.487Z,1.48
2023-02-19T20:31:25.653Z,1.45
2023-02-19T20:36:20.255Z,1.42
2023-02-19T20:41:12.443Z,1.37
2023-02-19T20:46:04.277Z,1.31
2023-02-19T20:51:26.088Z,1.26
2023-02-19T20:56:17.555Z,1.21
2023-02-19T21:01:11.240Z,1.19
2023-02-19T21:06:02.757Z,1.15
2023-02-19T21:10:55.685Z,1.10
2023-02-19T21:15:49.984Z,1.08
2023-02-19T21:20:41.417Z,1.03
2023-02-19T21:25:33.279Z,1.00
2023-02-19T21:30:24.994Z,0.94
2023-02-19T21:35:16.531Z,0.92
2023-02-19T21:40:18.710Z,0.89
2023-02-19T21:45:10.358Z,0.86
2023-02-19T21:50:02.111Z,0.81
2023-02-19T21:55:00.738Z,0.80
2023-02-19T21:59:52.245Z,0.77
2023-02-19T22:04:43.631Z,0.75
2023-02-19T22:09:35.023Z,0.75
2023-02-19T22:14:26.452Z,0.72
2023-02-19T22:19:17.876Z,0.69
2023-02-19T22:24:20.901Z,0.70
2023-02-19T22:29:14.675Z,0.75
2023-02-19T22:34:09.970Z,0.78
2023-02-19T22:39:01.727Z,0.78
2023-02-19T22:43:58.314Z,0.75
2023-02-19T22:48:50.081Z,0.72
2023-02-19T22:53:50.462Z,0.68
2023-02-19T22:58:42.678Z,0.63
2023-02-19T23:03:34.126Z,0.60
2023-02-19T23:08:25.523Z,0.62
2023-02-19T23:13:17.026Z,0.69
2023-02-19T23:18:08.497Z,0.81
2023-02-19T23:23:00.814Z,0.95
2023-02-19T23:28:06.296Z,1.06
2023-02-19T23:32:57.743Z,1.11
2023-02-19T23:37:49.386Z,1.13
2023-02-19T23:42:40.940Z,1.15
2023-02-19T23:47:32.362Z,1.16
2023-02-19T23:52:24.129Z,1.17
2023-02-19T23:57:16.026Z,1.17
